createdAt,value
2018-09-28T00:00:44.507Z,101357.91
2018-09-28T00:03:15.298Z,101356.02
2018-09-28T00:05:45.660Z,101347.05
2018-09-28T00:08:16.155Z,101346.08
2018-09-28T00:10:46.630Z,101351.54
2018-09-28T00:13:17.120Z,101350.51
2018-09-28T00:15:47.508Z,101359.70
2018-09-28T00:18:17.742Z,101352.70
2018-09-28T00:20:48.051Z,101353.67
2018-09-28T00:23:19.035Z,101355.17
2018-09-28T00:25:49.549Z,101362.69
2018-09-28T00:28:19.987Z,101358.39
2018-09-28T00:30:50.168Z,101357.18
2018-09-28T00:33:20.561Z,101354.58
2018-09-28T00:35:51.084Z,101362.78
2018-09-28T00:38:21.375Z,101354.38
2018-09-28T00:40:51.703Z,101355.41
2018-09-28T00:43:22.150Z,101346.91
2018-09-28T00:45:52.588Z,101343.23
2018-09-28T00:48:23.019Z,101347.59
2018-09-28T00:50:53.191Z,101349.45
2018-09-28T00:53:23.793Z,101346.20
2018-09-28T00:55:54.416Z,101347.53
2018-09-28T00:58:24.742Z,101346.88
2018-09-28T01:00:55.112Z,101341.70
2018-09-28T01:03:25.535Z,101349.08
2018-09-28T01:05:55.907Z,101345.80
2018-09-28T01:08:26.385Z,101353.70
2018-09-28T01:10:56.795Z,101352.63
2018-09-28T01:13:27.250Z,101341.50
2018-09-28T01:15:57.634Z,101333.23
2018-09-28T01:18:28.001Z,101327.58
2018-09-28T01:20:58.488Z,101336.59
2018-09-28T01:23:29.092Z,101337.28
2018-09-28T01:25:59.581Z,101340.27
2018-09-28T01:28:29.939Z,101347.53
2018-09-28T01:31:00.377Z,101348.06
2018-09-28T01:33:30.787Z,101352.29
2018-09-28T01:36:01.259Z,101348.21
2018-09-28T01:38:31.752Z,101346.23
2018-09-28T01:41:02.348Z,101354.27
2018-09-28T01:43:33.380Z,101353.52
2018-09-28T01:46:03.617Z,101349.08
2018-09-28T01:48:34.003Z,101347.56
2018-09-28T01:51:04.411Z,101347.80
2018-09-28T01:53:34.872Z,101347.98
2018-09-28T01:56:05.344Z,101354.28
2018-09-28T01:58:35.820Z,101352.41
2018-09-28T02:01:06.251Z,101353.64
2018-09-28T02:03:36.641Z,101359.95
2018-09-28T02:06:07.157Z,101361.08
2018-09-28T02:08:37.902Z,101362.50
2018-09-28T02:11:08.320Z,101357.77
2018-09-28T02:13:38.792Z,101363.63
2018-09-28T02:16:09.325Z,101363.08
2018-09-28T02:18:39.738Z,101362.45
2018-09-28T02:21:10.138Z,101361.15
2018-09-28T02:23:40.629Z,101362.73
2018-09-28T02:26:11.211Z,101368.50
2018-09-28T02:28:42.181Z,101369.94
2018-09-28T02:31:12.510Z,101379.08
2018-09-28T02:33:42.895Z,101374.89
2018-09-28T02:36:13.237Z,101382.07
2018-09-28T02:38:43.633Z,101374.72
2018-09-28T02:41:14.120Z,101370.68
2018-09-28T02:43:44.608Z,101374.73
2018-09-28T02:46:15.106Z,101371.69
2018-09-28T02:48:45.447Z,101369.80
2018-09-28T02:51:15.869Z,101366.87
2018-09-28T02:53:46.305Z,101373.35
2018-09-28T02:56:16.699Z,101367.05
2018-09-28T02:58:47.070Z,101368.78
2018-09-28T03:01:17.323Z,101364.69
2018-09-28T03:03:47.822Z,101365.77
2018-09-28T03:06:18.293Z,101364.21
2018-09-28T03:08:48.612Z,101369.61
2018-09-28T03:11:19.197Z,101373.91
2018-09-28T03:13:49.664Z,101373.41
2018-09-28T03:16:20.019Z,101381.20
2018-09-28T03:18:50.496Z,101381.23
2018-09-28T03:21:20.823Z,101385.47
2018-09-28T03:23:51.140Z,101380.71
2018-09-28T03:26:21.435Z,101386.13
2018-09-28T03:28:51.799Z,101388.84
2018-09-28T03:31:22.296Z,101396.36
2018-09-28T03:33:52.704Z,101399.05
2018-09-28T03:36:22.947Z,101402.86
2018-09-28T03:38:53.430Z,101401.16
2018-09-28T03:41:23.759Z,101398.23
2018-09-28T03:43:54.220Z,101402.26
2018-09-28T03:46:24.720Z,101409.28
2018-09-28T03:48:54.952Z,101408.19
2018-09-28T03:51:25.422Z,101410.42
2018-09-28T03:53:55.951Z,101402.63
2018-09-28T03:56:26.461Z,101410.45
2018-09-28T03:58:57.057Z,101410.52
2018-09-28T04:01:27.365Z,101410.36
2018-09-28T04:03:57.865Z,101404.77
2018-09-28T04:06:28.420Z,101410.23
2018-09-28T04:08:58.932Z,101405.70
2018-09-28T04:11:29.321Z,101406.27
2018-09-28T04:13:59.644Z,101404.33
2018-09-28T04:16:30.184Z,101417.72
2018-09-28T04:19:00.809Z,101419.98
2018-09-28T04:21:31.291Z,101417.86
2018-09-28T04:24:01.991Z,101415.76
2018-09-28T04:26:32.951Z,101416.63
2018-09-28T04:29:03.395Z,101418.30
2018-09-28T04:31:33.831Z,101425.12
2018-09-28T04:34:04.392Z,101419.16
2018-09-28T04:36:35.590Z,101426.12
2018-09-28T04:39:13.436Z,101436.58
2018-09-28T04:41:49.935Z,101435.22
2018-09-28T04:44:28.096Z,101435.61
2018-09-28T04:46:58.743Z,101445.67
2018-09-28T04:49:29.720Z,101447.31
2018-09-28T04:52:00.220Z,101449.11
2018-09-28T04:54:30.519Z,101449.52
2018-09-28T04:57:00.948Z,101460.94
2018-09-28T04:59:31.532Z,101458.17
2018-09-28T05:02:02.163Z,101465.60
2018-09-28T05:04:32.800Z,101468.97
2018-09-28T05:07:03.384Z,101477.73
2018-09-28T05:09:33.625Z,101474.70
2018-09-28T05:12:04.161Z,101484.30
2018-09-28T05:14:34.726Z,101486.03
2018-09-28T05:17:05.869Z,101485.99
2018-09-28T05:19:36.459Z,101488.20
2018-09-28T05:22:06.835Z,101498.92
2018-09-28T05:24:37.509Z,101500.81
2018-09-28T05:27:08.252Z,101505.69
2018-09-28T05:29:38.893Z,101506.34
2018-09-28T05:32:09.403Z,101507.34
2018-09-28T05:34:39.975Z,101510.11
2018-09-28T05:37:10.430Z,101519.22
2018-09-28T05:39:40.983Z,101526.33
2018-09-28T05:42:11.412Z,101527.73
2018-09-28T05:44:41.918Z,101535.81
2018-09-28T05:47:12.317Z,101533.00
2018-09-28T05:49:42.710Z,101536.70
2018-09-28T05:52:13.207Z,101540.09
2018-09-28T05:54:43.552Z,101541.58
2018-09-28T05:57:14.075Z,101551.05
2018-09-28T05:59:49.432Z,101554.86
2018-09-28T06:02:24.914Z,101554.74
2018-09-28T06:05:00.227Z,101557.57
2018-09-28T06:07:30.595Z,101566.94
2018-09-28T06:10:00.952Z,101570.13
2018-09-28T06:12:31.212Z,101576.99
2018-09-28T06:15:01.472Z,101578.94
2018-09-28T06:17:32.042Z,101585.42
2018-09-28T06:20:02.700Z,101590.92
2018-09-28T06:22:33.140Z,101601.02
2018-09-28T06:25:03.535Z,101602.50
2018-09-28T06:27:33.990Z,101601.86
2018-09-28T06:30:04.528Z,101614.61
2018-09-28T06:32:34.891Z,101619.70
2018-09-28T06:35:05.566Z,101613.37
2018-09-28T06:37:36.050Z,101621.24
2018-09-28T06:40:06.513Z,101626.36
2018-09-28T06:42:37.008Z,101622.84
2018-09-28T06:45:07.605Z,101637.80
2018-09-28T06:47:38.191Z,101641.34
2018-09-28T06:50:09.184Z,101649.82
2018-09-28T06:52:39.536Z,101653.97
2018-09-28T06:55:10.020Z,101663.48
2018-09-28T06:57:40.418Z,101665.93
2018-09-28T07:00:10.877Z,101665.38
2018-09-28T07:02:41.347Z,101672.97
2018-09-28T07:05:16.980Z,101680.59
2018-09-28T07:07:47.335Z,101683.45
2018-09-28T07:10:17.979Z,101679.69
2018-09-28T07:12:48.448Z,101685.20
2018-09-28T07:15:19.028Z,101692.58
2018-09-28T07:17:49.460Z,101702.13
2018-09-28T07:20:19.852Z,101717.00
2018-09-28T07:22:50.360Z,101717.27
2018-09-28T07:25:20.809Z,101725.02
2018-09-28T07:27:51.289Z,101723.31
2018-09-28T07:30:21.804Z,101735.03
2018-09-28T07:32:52.157Z,101736.27
2018-09-28T07:35:23.427Z,101738.66
2018-09-28T07:38:08.283Z,101737.02
2018-09-28T07:40:38.648Z,101741.33
2018-09-28T07:43:09.000Z,101743.36
2018-09-28T07:45:39.402Z,101742.88
2018-09-28T07:48:09.750Z,101749.48
2018-09-28T07:50:40.688Z,101753.22
2018-09-28T07:53:11.099Z,101757.49
2018-09-28T07:55:41.474Z,101762.52
2018-09-28T07:58:11.734Z,101760.22
2018-09-28T08:00:42.087Z,101766.26
2018-09-28T08:03:12.483Z,101770.20
2018-09-28T08:05:43.079Z,101774.99
2018-09-28T08:08:14.040Z,101769.19
2018-09-28T08:10:44.400Z,101772.66
2018-09-28T08:13:14.691Z,101768.73
2018-09-28T08:15:45.076Z,101773.31
2018-09-28T08:18:21.037Z,101777.62
2018-09-28T08:20:51.547Z,101784.64
2018-09-28T08:23:21.884Z,101788.58
2018-09-28T08:25:52.372Z,101789.70
2018-09-28T08:28:22.867Z,101785.78
2018-09-28T08:30:53.181Z,101801.45
2018-09-28T08:33:23.578Z,101800.39
2018-09-28T08:35:53.971Z,101807.47
2018-09-28T08:38:24.372Z,101807.47
2018-09-28T08:40:54.603Z,101813.69
2018-09-28T08:43:24.931Z,101819.10
2018-09-28T08:45:55.287Z,101812.97
2018-09-28T08:48:25.688Z,101816.53
2018-09-28T08:50:56.254Z,101814.39
2018-09-28T08:53:26.623Z,101822.23
2018-09-28T08:55:57.041Z,101816.64
2018-09-28T08:58:27.401Z,101811.05
2018-09-28T09:00:58.116Z,101813.34
2018-09-28T09:03:28.537Z,101809.10
2018-09-28T09:05:58.966Z,101813.11
2018-09-28T09:08:29.312Z,101812.83
2018-09-28T09:10:59.572Z,101824.88
2018-09-28T09:13:30.035Z,101822.94
2018-09-28T09:16:00.635Z,101823.78
2018-09-28T09:18:31.040Z,101822.27
2018-09-28T09:21:01.312Z,101819.98
2018-09-28T09:23:31.590Z,101817.38
2018-09-28T09:26:01.957Z,101828.42
2018-09-28T09:28:32.347Z,101826.42
2018-09-28T09:31:02.632Z,101829.43
2018-09-28T09:33:32.979Z,101825.98
2018-09-28T09:36:03.461Z,101823.19
2018-09-28T09:38:33.784Z,101819.20
2018-09-28T09:41:04.230Z,101815.83
2018-09-28T09:43:34.487Z,101819.48
2018-09-28T09:46:04.988Z,101813.76
2018-09-28T09:48:35.273Z,101815.64
2018-09-28T09:51:05.775Z,101820.80
2018-09-28T09:53:36.165Z,101816.09
2018-09-28T09:56:06.588Z,101825.05
2018-09-28T09:58:36.811Z,101821.74
2018-09-28T10:01:08.479Z,101824.23
2018-09-28T10:03:43.622Z,101823.63
2018-09-28T10:06:14.201Z,101827.51
2018-09-28T10:08:44.436Z,101825.63
2018-09-28T10:11:14.918Z,101820.16
2018-09-28T10:13:45.292Z,101827.19
2018-09-28T10:16:15.680Z,101829.11
2018-09-28T10:18:45.875Z,101823.81
2018-09-28T10:21:16.394Z,101822.11
2018-09-28T10:23:46.835Z,101820.55
2018-09-28T10:26:17.383Z,101821.96
2018-09-28T10:28:47.799Z,101810.63
2018-09-28T10:31:18.143Z,101814.45
2018-09-28T10:33:48.371Z,101816.92
2018-09-28T10:36:18.709Z,101810.87
2018-09-28T10:38:49.120Z,101812.22
2018-09-28T10:41:19.522Z,101816.43
2018-09-28T10:43:49.865Z,101817.09
2018-09-28T10:46:20.249Z,101818.78
2018-09-28T10:48:50.637Z,101814.19
2018-09-28T10:51:21.055Z,101817.59
2018-09-28T10:53:51.375Z,101819.16
2018-09-28T10:56:21.883Z,101810.19
2018-09-28T10:58:52.318Z,101823.20
2018-09-28T11:01:22.855Z,101818.68
2018-09-28T11:03:53.076Z,101820.77
2018-09-28T11:06:23.459Z,101815.99
2018-09-28T11:08:53.832Z,101808.41
2018-09-28T11:11:24.340Z,101816.31
2018-09-28T11:13:54.512Z,101813.20
2018-09-28T11:16:25.016Z,101810.73
2018-09-28T11:18:55.489Z,101804.83
2018-09-28T11:21:26.198Z,101812.28
2018-09-28T11:23:56.531Z,101812.92
2018-09-28T11:26:27.636Z,101822.89
2018-09-28T11:28:58.201Z,101819.78
2018-09-28T11:31:28.612Z,101824.42
2018-09-28T11:33:58.874Z,101826.56
2018-09-28T11:36:29.431Z,101828.00
2018-09-28T11:38:59.767Z,101840.39
2018-09-28T11:41:30.246Z,101838.55
2018-09-28T11:44:01.423Z,101832.73
2018-09-28T11:46:31.804Z,101838.65
2018-09-28T11:49:02.380Z,101845.98
2018-09-28T11:51:33.050Z,101848.60
2018-09-28T11:54:03.349Z,101849.82
2018-09-28T11:56:35.927Z,101837.53
2018-09-28T11:59:06.270Z,101838.27
2018-09-28T12:01:36.744Z,101842.57
2018-09-28T12:04:07.440Z,101836.77
2018-09-28T12:06:37.926Z,101839.31
2018-09-28T12:09:12.510Z,101837.42
2018-09-28T12:11:43.501Z,101834.73
2018-09-28T12:14:13.855Z,101832.80
2018-09-28T12:16:51.092Z,101830.50
2018-09-28T12:19:29.542Z,101827.20
2018-09-28T12:22:00.015Z,101840.71
2018-09-28T12:24:30.325Z,101842.94
2018-09-28T12:27:00.732Z,101830.41
2018-09-28T12:29:31.346Z,101826.28
2018-09-28T12:32:01.904Z,101830.17
2018-09-28T12:34:32.359Z,101834.50
2018-09-28T12:37:02.718Z,101840.17
2018-09-28T12:39:33.202Z,101837.50
2018-09-28T12:42:04.492Z,101839.07
2018-09-28T12:44:35.655Z,101834.80
2018-09-28T12:47:06.228Z,101833.17
2018-09-28T12:49:36.684Z,101826.91
2018-09-28T12:52:07.398Z,101834.99
2018-09-28T12:54:37.999Z,101827.84
2018-09-28T12:57:09.048Z,101830.02
2018-09-28T12:59:39.442Z,101838.47
2018-09-28T13:02:09.862Z,101842.39
2018-09-28T13:04:40.703Z,101843.82
2018-09-28T13:07:11.168Z,101851.88
2018-09-28T13:09:41.575Z,101850.94
2018-09-28T13:12:12.165Z,101850.57
2018-09-28T13:14:42.660Z,101846.13
2018-09-28T13:17:13.129Z,101846.25
2018-09-28T13:19:43.388Z,101853.49
2018-09-28T13:22:13.893Z,101855.42
2018-09-28T13:24:44.338Z,101852.41
2018-09-28T13:27:14.825Z,101847.55
2018-09-28T13:29:45.328Z,101848.31
2018-09-28T13:32:15.645Z,101846.69
2018-09-28T13:34:46.056Z,101854.75
2018-09-28T13:37:16.349Z,101861.02
2018-09-28T13:39:46.835Z,101858.50
2018-09-28T13:42:17.129Z,101852.18
2018-09-28T13:44:47.564Z,101848.87
2018-09-28T13:47:17.980Z,101852.34
2018-09-28T13:49:48.360Z,101854.04
2018-09-28T13:52:18.998Z,101851.98
2018-09-28T13:54:49.390Z,101861.05
2018-09-28T13:57:19.682Z,101857.56
2018-09-28T13:59:49.975Z,101867.10
2018-09-28T14:02:20.249Z,101867.44
2018-09-28T14:04:50.678Z,101867.52
2018-09-28T14:07:20.968Z,101864.64
2018-09-28T14:09:51.335Z,101865.67
2018-09-28T14:12:21.744Z,101863.30
2018-09-28T14:14:52.019Z,101865.12
2018-09-28T14:17:22.530Z,101865.98
2018-09-28T14:19:53.019Z,101873.67
2018-09-28T14:22:23.371Z,101881.43
2018-09-28T14:24:54.608Z,101881.81
2018-09-28T14:27:24.956Z,101885.72
2018-09-28T14:29:55.724Z,101887.75
2018-09-28T14:32:26.050Z,101882.89
2018-09-28T14:34:56.464Z,101884.49
2018-09-28T14:37:27.004Z,101891.37
2018-09-28T14:39:57.396Z,101891.13
2018-09-28T14:42:27.672Z,101896.28
2018-09-28T14:44:58.013Z,101910.77
2018-09-28T14:47:28.529Z,101901.52
2018-09-28T14:49:58.900Z,101919.13
2018-09-28T14:52:29.166Z,101911.98
2018-09-28T14:54:59.617Z,101906.16
2018-09-28T14:57:29.995Z,101909.97
2018-09-28T15:00:00.348Z,101906.33
2018-09-28T15:02:30.948Z,101913.68
2018-09-28T15:05:01.160Z,101913.31
2018-09-28T15:07:31.708Z,101917.88
2018-09-28T15:10:02.535Z,101919.64
2018-09-28T15:12:33.038Z,101917.58
2018-09-28T15:15:03.717Z,101920.39
2018-09-28T15:17:34.203Z,101916.10
2018-09-28T15:20:04.536Z,101919.87
2018-09-28T15:22:35.040Z,101915.11
2018-09-28T15:25:05.600Z,101918.22
2018-09-28T15:27:36.106Z,101924.77
2018-09-28T15:30:07.605Z,101915.13
2018-09-28T15:32:38.190Z,101918.09
2018-09-28T15:35:08.620Z,101913.55
2018-09-28T15:37:39.300Z,101910.89
2018-09-28T15:40:09.672Z,101922.66
2018-09-28T15:42:39.927Z,101921.62
2018-09-28T15:45:10.443Z,101921.70
2018-09-28T15:47:40.806Z,101923.16
2018-09-28T15:50:11.384Z,101922.83
2018-09-28T15:52:41.839Z,101923.67
2018-09-28T15:55:12.134Z,101931.56
2018-09-28T15:57:42.574Z,101932.17
2018-09-28T16:00:13.200Z,101927.91
2018-09-28T16:02:43.725Z,101933.29
2018-09-28T16:05:14.875Z,101935.11
2018-09-28T16:07:45.330Z,101943.04
2018-09-28T16:10:15.718Z,101943.15
2018-09-28T16:12:45.972Z,101946.08
2018-09-28T16:15:16.430Z,101954.56
2018-09-28T16:17:46.871Z,101955.97
2018-09-28T16:20:17.429Z,101961.10
2018-09-28T16:22:47.828Z,101960.92
2018-09-28T16:25:18.068Z,101971.36
2018-09-28T16:27:48.437Z,101980.73
2018-09-28T16:30:19.077Z,101981.09
2018-09-28T16:32:49.426Z,101970.27
2018-09-28T16:35:19.770Z,101982.97
2018-09-28T16:37:50.056Z,101982.28
2018-09-28T16:40:20.580Z,101990.02
2018-09-28T16:42:51.083Z,101988.01
2018-09-28T16:45:21.582Z,101994.03
2018-09-28T16:47:51.905Z,102001.45
2018-09-28T16:50:22.453Z,101995.89
2018-09-28T16:52:52.947Z,101999.03
2018-09-28T16:55:24.024Z,102007.93
2018-09-28T16:57:54.488Z,102009.34
2018-09-28T17:00:24.792Z,102008.34
2018-09-28T17:02:55.216Z,102019.59
2018-09-28T17:05:25.599Z,102022.39
2018-09-28T17:07:56.109Z,102018.83
2018-09-28T17:10:26.747Z,102022.73
2018-09-28T17:12:57.140Z,102021.74
2018-09-28T17:15:27.531Z,102015.30
2018-09-28T17:17:57.889Z,102029.44
2018-09-28T17:20:28.281Z,102031.15
2018-09-28T17:22:58.623Z,102034.16
2018-09-28T17:25:29.120Z,102043.68
2018-09-28T17:27:59.432Z,102041.61
2018-09-28T17:30:29.874Z,102044.78
2018-09-28T17:33:00.386Z,102039.33
2018-09-28T17:35:31.595Z,102047.82
2018-09-28T17:38:02.066Z,102054.14
2018-09-28T17:40:32.620Z,102063.80
2018-09-28T17:43:03.306Z,102064.53
2018-09-28T17:45:33.912Z,102067.02
2018-09-28T17:48:04.404Z,102076.39
2018-09-28T17:50:34.861Z,102072.32
2018-09-28T17:53:05.412Z,102072.66
2018-09-28T17:55:35.712Z,102076.59
2018-09-28T17:58:06.120Z,102088.02
2018-09-28T18:00:36.551Z,102100.77
2018-09-28T18:03:07.063Z,102100.86
2018-09-28T18:05:37.381Z,102100.58
2018-09-28T18:08:07.976Z,102108.16
2018-09-28T18:10:38.426Z,102105.73
2018-09-28T18:13:09.796Z,102108.61
2018-09-28T18:15:40.331Z,102112.27
2018-09-28T18:18:10.771Z,102116.38
2018-09-28T18:20:41.143Z,102123.50
2018-09-28T18:23:11.322Z,102124.86
2018-09-28T18:25:41.692Z,102126.31
2018-09-28T18:28:19.779Z,102135.94
2018-09-28T18:30:58.668Z,102144.85
2018-09-28T18:33:37.210Z,102149.33
2018-09-28T18:36:17.690Z,102146.59
2018-09-28T18:38:57.716Z,102152.25
2018-09-28T18:41:37.253Z,102148.36
2018-09-28T18:44:08.012Z,102155.34
2018-09-28T18:46:38.607Z,102156.78
2018-09-28T18:49:09.207Z,102163.84
2018-09-28T18:51:39.815Z,102162.41
2018-09-28T18:54:10.028Z,102158.98
2018-09-28T18:56:40.439Z,102157.86
2018-09-28T18:59:10.868Z,102159.63
2018-09-28T19:01:41.229Z,102166.23
2018-09-28T19:04:11.572Z,102166.69
2018-09-28T19:06:41.858Z,102162.81
2018-09-28T19:09:12.891Z,102169.34
2018-09-28T19:11:44.044Z,102159.66
2018-09-28T19:14:14.559Z,102162.67
2018-09-28T19:16:44.784Z,102166.38
2018-09-28T19:19:15.299Z,102174.00
2018-09-28T19:21:45.759Z,102181.44
2018-09-28T19:24:16.176Z,102180.41
2018-09-28T19:26:46.665Z,102189.48
2018-09-28T19:29:16.999Z,102191.31
2018-09-28T19:31:47.403Z,102184.53
2018-09-28T19:34:17.787Z,102190.03
2018-09-28T19:36:48.272Z,102190.42
2018-09-28T19:39:19.095Z,102183.38
2018-09-28T19:41:49.458Z,102193.39
2018-09-28T19:44:32.362Z,102194.48
2018-09-28T19:47:02.678Z,102195.87
2018-09-28T19:49:33.241Z,102199.37
2018-09-28T19:52:03.563Z,102201.25
2018-09-28T19:54:34.007Z,102205.70
2018-09-28T19:57:04.419Z,102208.88
2018-09-28T19:59:34.670Z,102213.23
2018-09-28T20:02:05.072Z,102208.97
2018-09-28T20:04:35.607Z,102213.69
2018-09-28T20:07:06.236Z,102216.00
2018-09-28T20:09:36.595Z,102220.48
2018-09-28T20:12:07.371Z,102225.77
2018-09-28T20:14:38.067Z,102228.89
2018-09-28T20:17:08.676Z,102220.77
2018-09-28T20:19:39.110Z,102223.91
2018-09-28T20:22:12.992Z,102233.53
2018-09-28T20:24:43.389Z,102228.83
2018-09-28T20:27:13.855Z,102231.02
2018-09-28T20:29:44.350Z,102239.73
2018-09-28T20:32:14.742Z,102238.05
2018-09-28T20:34:45.112Z,102245.04
2018-09-28T20:37:15.363Z,102250.27
2018-09-28T20:39:45.860Z,102248.27
2018-09-28T20:42:16.312Z,102257.34
2018-09-28T20:44:46.999Z,102261.27
2018-09-28T20:47:17.328Z,102264.77
2018-09-28T20:49:47.680Z,102266.06
2018-09-28T20:52:17.696Z,102265.24
2018-09-28T20:54:47.731Z,102273.88
2018-09-28T21:00:17.336Z,102275.17
2018-09-28T21:02:47.540Z,102272.64
2018-09-28T21:05:18.004Z,102272.23
2018-09-28T21:07:48.383Z,102269.20
2018-09-28T21:10:18.765Z,102268.86
2018-09-28T21:12:49.191Z,102277.52
2018-09-28T21:15:19.499Z,102282.29
2018-09-28T21:17:49.713Z,102284.53
2018-09-28T21:20:20.287Z,102283.27
2018-09-28T21:22:50.674Z,102289.80
2018-09-28T21:25:20.895Z,102294.56
2018-09-28T21:27:52.156Z,102292.38
2018-09-28T21:30:22.393Z,102302.30
2018-09-28T21:32:52.672Z,102303.23
2018-09-28T21:35:23.263Z,102302.80
2018-09-28T21:37:53.573Z,102300.20
2018-09-28T21:40:23.928Z,102301.08
2018-09-28T21:42:54.292Z,102300.69
2018-09-28T21:45:24.786Z,102303.32
2018-09-28T21:47:55.212Z,102305.55
2018-09-28T21:50:25.560Z,102306.81
2018-09-28T21:52:55.917Z,102311.99
2018-09-28T21:55:26.263Z,102311.98
2018-09-28T21:57:56.679Z,102315.86
2018-09-28T22:00:27.156Z,102317.62
2018-09-28T22:02:57.865Z,102310.80
2018-09-28T22:05:28.532Z,102312.53
2018-09-28T22:07:58.712Z,102311.24
2018-09-28T22:10:29.124Z,102305.28
2018-09-28T22:12:59.388Z,102308.32
2018-09-28T22:15:29.768Z,102316.06
2018-09-28T22:18:00.275Z,102316.51
2018-09-28T22:20:30.800Z,102316.48
2018-09-28T22:23:01.819Z,102318.23
2018-09-28T22:25:32.295Z,102320.80
2018-09-28T22:28:02.771Z,102316.56
2018-09-28T22:30:33.273Z,102318.29
2018-09-28T22:33:03.752Z,102317.05
2018-09-28T22:35:34.125Z,102320.06
2018-09-28T22:38:04.497Z,102319.68
2018-09-28T22:40:34.973Z,102332.60
2018-09-28T22:43:05.476Z,102333.48
2018-09-28T22:45:36.061Z,102339.94
2018-09-28T22:48:06.639Z,102336.95
2018-09-28T22:50:36.985Z,102338.67
2018-09-28T22:53:07.328Z,102338.27
2018-09-28T22:55:37.744Z,102340.42
2018-09-28T22:58:08.161Z,102333.11
2018-09-28T23:00:38.855Z,102331.84
2018-09-28T23:03:09.535Z,102330.59
2018-09-28T23:05:39.940Z,102334.45
2018-09-28T23:08:10.392Z,102341.35
2018-09-28T23:10:40.962Z,102345.23
2018-09-28T23:13:11.426Z,102342.24
2018-09-28T23:15:41.929Z,102346.94
2018-09-28T23:18:12.239Z,102347.38
2018-09-28T23:20:42.679Z,102340.52
2018-09-28T23:23:13.073Z,102336.61
2018-09-28T23:25:43.627Z,102335.80
2018-09-28T23:28:14.020Z,102336.69
2018-09-28T23:30:44.389Z,102338.84
2018-09-28T23:33:14.699Z,102336.67
2018-09-28T23:35:45.007Z,102337.98
2018-09-28T23:38:15.372Z,102339.66
2018-09-28T23:40:45.797Z,102345.70
2018-09-28T23:43:16.096Z,102344.00
2018-09-28T23:45:46.576Z,102345.29
2018-09-28T23:48:16.875Z,102344.86
2018-09-28T23:50:47.243Z,102349.14
2018-09-28T23:53:17.408Z,102355.14
2018-09-28T23:55:47.675Z,102358.16
2018-09-28T23:58:18.106Z,102368.89
